sensor_id;sensor_type;location;lat;lon;timestamp;temperature;humidity
7844;DHT22;3967;48.702;9.326;2023-07-20T00:00:03;22.50;59.60
7844;DHT22;3967;48.702;9.326;2023-07-20T00:02:30;22.50;59.20
7844;DHT22;3967;48.702;9.326;2023-07-20T00:04:57;22.40;58.80
7844;DHT22;3967;48.702;9.326;2023-07-20T00:07:24;22.20;58.50
7844;DHT22;3967;48.702;9.326;2023-07-20T00:09:51;22.40;58.30
7844;DHT22;3967;48.702;9.326;2023-07-20T00:12:18;22.40;57.30
7844;DHT22;3967;48.702;9.326;2023-07-20T00:14:45;22.10;56.80
7844;DHT22;3967;48.702;9.326;2023-07-20T00:17:11;22.00;56.50
7844;DHT22;3967;48.702;9.326;2023-07-20T00:19:38;22.00;56.60
7844;DHT22;3967;48.702;9.326;2023-07-20T00:22:05;22.10;56.50
7844;DHT22;3967;48.702;9.326;2023-07-20T00:24:32;22.20;56.40
7844;DHT22;3967;48.702;9.326;2023-07-20T00:26:59;22.40;56.40
7844;DHT22;3967;48.702;9.326;2023-07-20T00:29:27;22.10;56.50
7844;DHT22;3967;48.702;9.326;2023-07-20T00:31:54;22.10;56.40
7844;DHT22;3967;48.702;9.326;2023-07-20T00:34:21;22.10;56.50
7844;DHT22;3967;48.702;9.326;2023-07-20T00:36:48;21.90;56.20
7844;DHT22;3967;48.702;9.326;2023-07-20T00:39:16;22.00;56.20
7844;DHT22;3967;48.702;9.326;2023-07-20T00:41:42;22.00;56.10
7844;DHT22;3967;48.702;9.326;2023-07-20T00:44:09;21.90;56.30
7844;DHT22;3967;48.702;9.326;2023-07-20T00:46:36;21.80;56.20
7844;DHT22;3967;48.702;9.326;2023-07-20T00:49:03;21.80;56.60
7844;DHT22;3967;48.702;9.326;2023-07-20T00:51:30;21.70;56.80
7844;DHT22;3967;48.702;9.326;2023-07-20T00:53:57;21.70;56.90
7844;DHT22;3967;48.702;9.326;2023-07-20T00:56:24;21.70;57.10
7844;DHT22;3967;48.702;9.326;2023-07-20T00:58:52;21.70;57.30
7844;DHT22;3967;48.702;9.326;2023-07-20T01:01:19;21.70;57.30
7844;DHT22;3967;48.702;9.326;2023-07-20T01:03:46;21.60;57.50
7844;DHT22;3967;48.702;9.326;2023-07-20T01:06:24;21.80;57.70
7844;DHT22;3967;48.702;9.326;2023-07-20T01:08:57;21.80;57.80
7844;DHT22;3967;48.702;9.326;2023-07-20T01:11:38;21.50;58.80
7844;DHT22;3967;48.702;9.326;2023-07-20T01:14:06;21.40;59.40
7844;DHT22;3967;48.702;9.326;2023-07-20T01:16:33;21.40;59.80
7844;DHT22;3967;48.702;9.326;2023-07-20T01:19:00;21.40;60.00
7844;DHT22;3967;48.702;9.326;2023-07-20T01:21:34;21.40;60.20
7844;DHT22;3967;48.702;9.326;2023-07-20T01:24:26;21.50;60.40
7844;DHT22;3967;48.702;9.326;2023-07-20T01:27:22;21.40;60.40
7844;DHT22;3967;48.702;9.326;2023-07-20T01:32:28;21.40;60.30
7844;DHT22;3967;48.702;9.326;2023-07-20T01:34:56;21.30;60.00
7844;DHT22;3967;48.702;9.326;2023-07-20T01:37:25;21.50;60.30
7844;DHT22;3967;48.702;9.326;2023-07-20T01:39:56;21.40;59.90
7844;DHT22;3967;48.702;9.326;2023-07-20T01:42:23;21.40;60.10
7844;DHT22;3967;48.702;9.326;2023-07-20T01:44:51;21.20;60.30
7844;DHT22;3967;48.702;9.326;2023-07-20T01:47:21;21.30;60.20
7844;DHT22;3967;48.702;9.326;2023-07-20T01:49:47;21.30;60.20
7844;DHT22;3967;48.702;9.326;2023-07-20T01:52:14;21.20;60.30
7844;DHT22;3967;48.702;9.326;2023-07-20T01:54:42;21.30;60.20
7844;DHT22;3967;48.702;9.326;2023-07-20T01:57:08;21.30;60.10
7844;DHT22;3967;48.702;9.326;2023-07-20T01:59:35;21.30;60.20
7844;DHT22;3967;48.702;9.326;2023-07-20T02:02:03;21.30;60.20
7844;DHT22;3967;48.702;9.326;2023-07-20T02:04:30;21.20;61.10
7844;DHT22;3967;48.702;9.326;2023-07-20T02:06:57;21.10;60.50
7844;DHT22;3967;48.702;9.326;2023-07-20T02:09:23;21.10;60.90
7844;DHT22;3967;48.702;9.326;2023-07-20T02:11:50;20.90;61.10
7844;DHT22;3967;48.702;9.326;2023-07-20T02:14:17;20.90;61.40
7844;DHT22;3967;48.702;9.326;2023-07-20T02:16:44;20.90;61.60
7844;DHT22;3967;48.702;9.326;2023-07-20T02:19:10;20.90;61.50
7844;DHT22;3967;48.702;9.326;2023-07-20T02:21:37;20.90;62.10
7844;DHT22;3967;48.702;9.326;2023-07-20T02:24:05;20.90;61.40
7844;DHT22;3967;48.702;9.326;2023-07-20T02:26:33;20.70;61.20
7844;DHT22;3967;48.702;9.326;2023-07-20T02:29:00;20.80;61.30
7844;DHT22;3967;48.702;9.326;2023-07-20T02:31:26;20.70;61.10
7844;DHT22;3967;48.702;9.326;2023-07-20T02:33:53;20.70;61.40
7844;DHT22;3967;48.702;9.326;2023-07-20T02:36:20;20.80;61.30
7844;DHT22;3967;48.702;9.326;2023-07-20T02:38:47;20.80;61.00
7844;DHT22;3967;48.702;9.326;2023-07-20T02:41:14;20.70;60.90
7844;DHT22;3967;48.702;9.326;2023-07-20T02:43:40;20.80;61.30
7844;DHT22;3967;48.702;9.326;2023-07-20T02:46:07;20.70;61.10
7844;DHT22;3967;48.702;9.326;2023-07-20T02:48:34;20.70;61.10
7844;DHT22;3967;48.702;9.326;2023-07-20T02:51:01;20.60;61.20
7844;DHT22;3967;48.702;9.326;2023-07-20T02:53:28;20.60;61.40
7844;DHT22;3967;48.702;9.326;2023-07-20T02:55:54;20.70;61.50
7844;DHT22;3967;48.702;9.326;2023-07-20T02:58:21;20.60;61.70
7844;DHT22;3967;48.702;9.326;2023-07-20T03:00:48;20.50;61.90
7844;DHT22;3967;48.702;9.326;2023-07-20T03:03:15;20.30;62.20
7844;DHT22;3967;48.702;9.326;2023-07-20T03:05:42;20.40;62.60
7844;DHT22;3967;48.702;9.326;2023-07-20T03:08:08;20.40;62.70
7844;DHT22;3967;48.702;9.326;2023-07-20T03:10:39;20.40;62.90
7844;DHT22;3967;48.702;9.326;2023-07-20T03:13:07;20.40;63.10
7844;DHT22;3967;48.702;9.326;2023-07-20T03:15:34;20.20;62.90
7844;DHT22;3967;48.702;9.326;2023-07-20T03:18:01;20.00;63.40
7844;DHT22;3967;48.702;9.326;2023-07-20T03:20:29;20.00;63.70
7844;DHT22;3967;48.702;9.326;2023-07-20T03:22:56;20.10;63.70
7844;DHT22;3967;48.702;9.326;2023-07-20T03:25:23;20.10;63.40
7844;DHT22;3967;48.702;9.326;2023-07-20T03:27:53;20.10;63.50
7844;DHT22;3967;48.702;9.326;2023-07-20T03:30:20;20.00;63.90
7844;DHT22;3967;48.702;9.326;2023-07-20T03:32:46;19.90;63.90
7844;DHT22;3967;48.702;9.326;2023-07-20T03:35:13;19.90;64.10
7844;DHT22;3967;48.702;9.326;2023-07-20T03:37:42;19.90;64.40
7844;DHT22;3967;48.702;9.326;2023-07-20T03:40:10;20.00;64.60
7844;DHT22;3967;48.702;9.326;2023-07-20T03:42:36;19.80;64.60
7844;DHT22;3967;48.702;9.326;2023-07-20T03:45:06;19.80;64.80
7844;DHT22;3967;48.702;9.326;2023-07-20T03:47:33;19.90;64.60
7844;DHT22;3967;48.702;9.326;2023-07-20T03:49:59;19.90;64.90
7844;DHT22;3967;48.702;9.326;2023-07-20T03:52:26;19.90;64.80
7844;DHT22;3967;48.702;9.326;2023-07-20T03:54:53;19.70;64.90
7844;DHT22;3967;48.702;9.326;2023-07-20T03:57:19;19.70;65.00
7844;DHT22;3967;48.702;9.326;2023-07-20T03:59:48;19.80;64.90
7844;DHT22;3967;48.702;9.326;2023-07-20T04:02:15;19.80;65.20
7844;DHT22;3967;48.702;9.326;2023-07-20T04:04:41;19.80;65.40
7844;DHT22;3967;48.702;9.326;2023-07-20T04:07:08;19.80;65.60
7844;DHT22;3967;48.702;9.326;2023-07-20T04:09:35;19.80;65.70
7844;DHT22;3967;48.702;9.326;2023-07-20T04:12:02;19.80;65.90
7844;DHT22;3967;48.702;9.326;2023-07-20T04:14:29;19.80;65.90
7844;DHT22;3967;48.702;9.326;2023-07-20T04:16:55;19.70;65.80
7844;DHT22;3967;48.702;9.326;2023-07-20T04:19:22;19.70;66.10
7844;DHT22;3967;48.702;9.326;2023-07-20T04:21:49;19.50;66.10
7844;DHT22;3967;48.702;9.326;2023-07-20T04:24:16;19.50;66.40
7844;DHT22;3967;48.702;9.326;2023-07-20T04:26:42;19.70;66.50
7844;DHT22;3967;48.702;9.326;2023-07-20T04:29:09;19.70;66.50
7844;DHT22;3967;48.702;9.326;2023-07-20T04:31:36;19.70;66.30
7844;DHT22;3967;48.702;9.326;2023-07-20T04:34:03;19.70;66.40
7844;DHT22;3967;48.702;9.326;2023-07-20T04:36:30;19.70;66.50
7844;DHT22;3967;48.702;9.326;2023-07-20T04:38:56;19.70;66.40
7844;DHT22;3967;48.702;9.326;2023-07-20T04:41:23;20.00;66.40
7844;DHT22;3967;48.702;9.326;2023-07-20T04:43:51;19.80;66.50
7844;DHT22;3967;48.702;9.326;2023-07-20T04:46:18;19.70;66.90
7844;DHT22;3967;48.702;9.326;2023-07-20T04:48:45;19.70;67.00
7844;DHT22;3967;48.702;9.326;2023-07-20T04:51:12;19.80;67.00
7844;DHT22;3967;48.702;9.326;2023-07-20T04:53:39;19.90;67.10
7844;DHT22;3967;48.702;9.326;2023-07-20T04:56:05;19.80;67.20
7844;DHT22;3967;48.702;9.326;2023-07-20T04:58:32;19.90;66.80
7844;DHT22;3967;48.702;9.326;2023-07-20T05:00:59;19.90;67.00
7844;DHT22;3967;48.702;9.326;2023-07-20T05:03:25;20.00;67.10
7844;DHT22;3967;48.702;9.326;2023-07-20T05:05:53;20.00;67.00
7844;DHT22;3967;48.702;9.326;2023-07-20T05:08:20;20.10;67.30
7844;DHT22;3967;48.702;9.326;2023-07-20T05:10:48;20.10;67.00
7844;DHT22;3967;48.702;9.326;2023-07-20T05:13:16;20.10;67.40
7844;DHT22;3967;48.702;9.326;2023-07-20T05:15:42;20.00;67.90
7844;DHT22;3967;48.702;9.326;2023-07-20T05:18:09;20.00;68.20
7844;DHT22;3967;48.702;9.326;2023-07-20T05:20:36;20.00;68.10
7844;DHT22;3967;48.702;9.326;2023-07-20T05:23:03;20.10;68.00
7844;DHT22;3967;48.702;9.326;2023-07-20T05:25:30;20.20;67.70
7844;DHT22;3967;48.702;9.326;2023-07-20T05:27:57;20.10;67.90
7844;DHT22;3967;48.702;9.326;2023-07-20T05:30:25;20.20;67.70
7844;DHT22;3967;48.702;9.326;2023-07-20T05:32:52;20.30;68.30
7844;DHT22;3967;48.702;9.326;2023-07-20T05:35:20;20.20;68.50
7844;DHT22;3967;48.702;9.326;2023-07-20T05:37:47;20.30;68.20
7844;DHT22;3967;48.702;9.326;2023-07-20T05:40:15;20.40;68.50
7844;DHT22;3967;48.702;9.326;2023-07-20T05:42:46;20.30;68.10
7844;DHT22;3967;48.702;9.326;2023-07-20T05:45:14;20.30;68.20
7844;DHT22;3967;48.702;9.326;2023-07-20T05:47:44;20.40;68.20
7844;DHT22;3967;48.702;9.326;2023-07-20T05:50:11;20.60;67.90
7844;DHT22;3967;48.702;9.326;2023-07-20T05:52:37;20.60;68.30
7844;DHT22;3967;48.702;9.326;2023-07-20T05:55:06;20.60;68.00
7844;DHT22;3967;48.702;9.326;2023-07-20T05:57:35;20.60;68.10
7844;DHT22;3967;48.702;9.326;2023-07-20T06:00:03;20.70;68.20
7844;DHT22;3967;48.702;9.326;2023-07-20T06:02:30;20.70;69.00
7844;DHT22;3967;48.702;9.326;2023-07-20T06:04:57;20.70;68.20
7844;DHT22;3967;48.702;9.326;2023-07-20T06:07:23;20.80;68.40
7844;DHT22;3967;48.702;9.326;2023-07-20T06:09:50;20.80;67.90
7844;DHT22;3967;48.702;9.326;2023-07-20T06:12:17;20.70;67.60
7844;DHT22;3967;48.702;9.326;2023-07-20T06:14:43;20.60;67.80
7844;DHT22;3967;48.702;9.326;2023-07-20T06:17:10;20.90;67.80
7844;DHT22;3967;48.702;9.326;2023-07-20T06:19:37;21.00;67.60
7844;DHT22;3967;48.702;9.326;2023-07-20T06:22:04;21.10;67.70
7844;DHT22;3967;48.702;9.326;2023-07-20T06:24:31;21.10;67.30
7844;DHT22;3967;48.702;9.326;2023-07-20T06:26:57;21.20;67.00
7844;DHT22;3967;48.702;9.326;2023-07-20T06:29:24;21.20;66.80
7844;DHT22;3967;48.702;9.326;2023-07-20T06:31:51;21.20;66.40
7844;DHT22;3967;48.702;9.326;2023-07-20T06:34:18;21.20;66.20
7844;DHT22;3967;48.702;9.326;2023-07-20T06:36:49;21.00;66.40
7844;DHT22;3967;48.702;9.326;2023-07-20T06:39:16;20.80;66.80
7844;DHT22;3967;48.702;9.326;2023-07-20T06:41:45;21.10;67.00
7844;DHT22;3967;48.702;9.326;2023-07-20T06:44:12;21.20;66.50
7844;DHT22;3967;48.702;9.326;2023-07-20T06:46:39;21.30;66.40
7844;DHT22;3967;48.702;9.326;2023-07-20T06:49:06;21.40;65.40
7844;DHT22;3967;48.702;9.326;2023-07-20T06:51:37;21.40;66.00
7844;DHT22;3967;48.702;9.326;2023-07-20T06:54:04;21.50;65.40
7844;DHT22;3967;48.702;9.326;2023-07-20T06:56:31;21.40;64.90
7844;DHT22;3967;48.702;9.326;2023-07-20T06:58:59;21.40;65.90
7844;DHT22;3967;48.702;9.326;2023-07-20T07:01:26;21.40;66.00
7844;DHT22;3967;48.702;9.326;2023-07-20T07:03:53;21.50;65.80
7844;DHT22;3967;48.702;9.326;2023-07-20T07:06:22;21.70;66.50
7844;DHT22;3967;48.702;9.326;2023-07-20T07:08:51;21.60;65.10
7844;DHT22;3967;48.702;9.326;2023-07-20T07:11:18;21.60;65.40
7844;DHT22;3967;48.702;9.326;2023-07-20T07:13:45;21.80;65.90
7844;DHT22;3967;48.702;9.326;2023-07-20T07:16:15;21.80;65.40
7844;DHT22;3967;48.702;9.326;2023-07-20T07:18:46;21.90;64.90
7844;DHT22;3967;48.702;9.326;2023-07-20T07:21:13;22.10;65.60
7844;DHT22;3967;48.702;9.326;2023-07-20T07:23:40;22.20;65.10
7844;DHT22;3967;48.702;9.326;2023-07-20T07:26:07;22.20;64.60
7844;DHT22;3967;48.702;9.326;2023-07-20T07:28:34;22.20;64.70
7844;DHT22;3967;48.702;9.326;2023-07-20T07:31:01;22.30;64.80
7844;DHT22;3967;48.702;9.326;2023-07-20T07:33:30;22.30;65.50
7844;DHT22;3967;48.702;9.326;2023-07-20T07:35:57;22.30;64.50
7844;DHT22;3967;48.702;9.326;2023-07-20T07:38:28;22.50;64.10
7844;DHT22;3967;48.702;9.326;2023-07-20T07:41:14;22.40;64.10
7844;DHT22;3967;48.702;9.326;2023-07-20T07:43:41;22.80;64.00
7844;DHT22;3967;48.702;9.326;2023-07-20T07:46:08;23.30;63.70
7844;DHT22;3967;48.702;9.326;2023-07-20T07:48:35;23.70;62.60
7844;DHT22;3967;48.702;9.326;2023-07-20T07:51:01;23.60;61.60
7844;DHT22;3967;48.702;9.326;2023-07-20T07:53:28;23.70;62.30
7844;DHT22;3967;48.702;9.326;2023-07-20T07:55:55;23.70;61.50
7844;DHT22;3967;48.702;9.326;2023-07-20T07:58:22;23.60;61.00
7844;DHT22;3967;48.702;9.326;2023-07-20T08:00:48;23.70;61.10
7844;DHT22;3967;48.702;9.326;2023-07-20T08:03:15;23.50;61.30
7844;DHT22;3967;48.702;9.326;2023-07-20T08:05:42;23.60;61.30
7844;DHT22;3967;48.702;9.326;2023-07-20T08:08:09;23.60;61.30
7844;DHT22;3967;48.702;9.326;2023-07-20T08:10:36;23.50;61.00
7844;DHT22;3967;48.702;9.326;2023-07-20T08:13:03;23.70;61.20
7844;DHT22;3967;48.702;9.326;2023-07-20T08:15:29;23.90;60.10
7844;DHT22;3967;48.702;9.326;2023-07-20T08:17:56;24.20;59.30
7844;DHT22;3967;48.702;9.326;2023-07-20T08:20:23;24.00;58.90
7844;DHT22;3967;48.702;9.326;2023-07-20T08:22:54;24.50;59.30
7844;DHT22;3967;48.702;9.326;2023-07-20T08:25:21;24.70;58.10
7844;DHT22;3967;48.702;9.326;2023-07-20T08:27:48;24.70;58.80
7844;DHT22;3967;48.702;9.326;2023-07-20T08:30:15;24.60;58.40
7844;DHT22;3967;48.702;9.326;2023-07-20T08:32:42;24.50;58.00
7844;DHT22;3967;48.702;9.326;2023-07-20T08:35:09;24.60;58.10
7844;DHT22;3967;48.702;9.326;2023-07-20T08:37:36;24.80;58.90
7844;DHT22;3967;48.702;9.326;2023-07-20T08:40:02;24.90;57.80
7844;DHT22;3967;48.702;9.326;2023-07-20T08:42:30;24.90;56.90
7844;DHT22;3967;48.702;9.326;2023-07-20T08:44:58;24.90;57.10
7844;DHT22;3967;48.702;9.326;2023-07-20T08:47:25;24.90;57.20
7844;DHT22;3967;48.702;9.326;2023-07-20T08:49:54;24.90;57.60
7844;DHT22;3967;48.702;9.326;2023-07-20T08:52:22;24.90;57.40
7844;DHT22;3967;48.702;9.326;2023-07-20T08:54:49;24.80;57.10
7844;DHT22;3967;48.702;9.326;2023-07-20T08:57:17;24.70;57.10
7844;DHT22;3967;48.702;9.326;2023-07-20T08:59:45;24.80;57.60
7844;DHT22;3967;48.702;9.326;2023-07-20T09:02:15;24.80;55.20
7844;DHT22;3967;48.702;9.326;2023-07-20T09:04:46;24.80;54.30
7844;DHT22;3967;48.702;9.326;2023-07-20T09:07:13;24.40;55.70
7844;DHT22;3967;48.702;9.326;2023-07-20T09:09:41;24.70;56.80
7844;DHT22;3967;48.702;9.326;2023-07-20T09:12:14;24.70;56.30
7844;DHT22;3967;48.702;9.326;2023-07-20T09:14:43;25.10;56.50
7844;DHT22;3967;48.702;9.326;2023-07-20T09:17:14;25.20;55.80
7844;DHT22;3967;48.702;9.326;2023-07-20T09:19:48;25.20;55.40
7844;DHT22;3967;48.702;9.326;2023-07-20T09:22:15;25.20;55.90
7844;DHT22;3967;48.702;9.326;2023-07-20T09:24:42;25.30;55.40
7844;DHT22;3967;48.702;9.326;2023-07-20T09:27:10;25.50;55.60
7844;DHT22;3967;48.702;9.326;2023-07-20T09:29:56;26.00;55.50
7844;DHT22;3967;48.702;9.326;2023-07-20T09:32:23;26.30;54.10
7844;DHT22;3967;48.702;9.326;2023-07-20T09:34:51;26.40;51.90
7844;DHT22;3967;48.702;9.326;2023-07-20T09:37:22;26.40;52.80
7844;DHT22;3967;48.702;9.326;2023-07-20T09:39:52;26.30;51.60
7844;DHT22;3967;48.702;9.326;2023-07-20T09:42:25;26.10;52.00
7844;DHT22;3967;48.702;9.326;2023-07-20T09:44:56;25.80;51.00
7844;DHT22;3967;48.702;9.326;2023-07-20T09:47:23;25.70;51.30
7844;DHT22;3967;48.702;9.326;2023-07-20T09:49:59;25.80;50.60
7844;DHT22;3967;48.702;9.326;2023-07-20T09:52:31;26.10;52.00
7844;DHT22;3967;48.702;9.326;2023-07-20T09:55:02;26.30;50.90
7844;DHT22;3967;48.702;9.326;2023-07-20T09:57:29;26.40;50.60
7844;DHT22;3967;48.702;9.326;2023-07-20T09:59:57;26.70;50.60
7844;DHT22;3967;48.702;9.326;2023-07-20T10:02:46;26.90;50.80
7844;DHT22;3967;48.702;9.326;2023-07-20T10:05:13;26.80;50.50
7844;DHT22;3967;48.702;9.326;2023-07-20T10:07:50;26.90;50.00
7844;DHT22;3967;48.702;9.326;2023-07-20T10:10:41;26.80;49.70
7844;DHT22;3967;48.702;9.326;2023-07-20T10:13:17;26.80;48.80
7844;DHT22;3967;48.702;9.326;2023-07-20T10:15:47;26.60;49.40
7844;DHT22;3967;48.702;9.326;2023-07-20T10:18:25;26.20;49.90
7844;DHT22;3967;48.702;9.326;2023-07-20T10:20:54;25.80;50.60
7844;DHT22;3967;48.702;9.326;2023-07-20T10:23:24;26.10;50.90
7844;DHT22;3967;48.702;9.326;2023-07-20T10:25:52;26.30;50.10
7844;DHT22;3967;48.702;9.326;2023-07-20T10:28:20;26.40;49.60
7844;DHT22;3967;48.702;9.326;2023-07-20T10:30:50;26.50;50.60
7844;DHT22;3967;48.702;9.326;2023-07-20T10:33:17;26.80;50.20
7844;DHT22;3967;48.702;9.326;2023-07-20T10:35:57;26.70;49.70
7844;DHT22;3967;48.702;9.326;2023-07-20T10:38:52;26.90;49.30
7844;DHT22;3967;48.702;9.326;2023-07-20T10:43:59;27.20;47.40
7844;DHT22;3967;48.702;9.326;2023-07-20T10:49:08;27.30;46.90
7844;DHT22;3967;48.702;9.326;2023-07-20T10:51:46;27.40;46.50
7844;DHT22;3967;48.702;9.326;2023-07-20T10:56:47;28.00;46.70
7844;DHT22;3967;48.702;9.326;2023-07-20T10:59:19;28.10;45.90
7844;DHT22;3967;48.702;9.326;2023-07-20T11:01:47;27.70;45.80
7844;DHT22;3967;48.702;9.326;2023-07-20T11:04:17;27.40;45.50
7844;DHT22;3967;48.702;9.326;2023-07-20T11:06:46;27.00;46.70
7844;DHT22;3967;48.702;9.326;2023-07-20T11:09:14;26.90;46.50
7844;DHT22;3967;48.702;9.326;2023-07-20T11:11:46;26.70;46.90
7844;DHT22;3967;48.702;9.326;2023-07-20T11:14:25;27.20;46.70
7844;DHT22;3967;48.702;9.326;2023-07-20T11:16:53;27.50;45.30
7844;DHT22;3967;48.702;9.326;2023-07-20T11:19:25;27.80;44.80
7844;DHT22;3967;48.702;9.326;2023-07-20T11:21:56;28.00;44.20
7844;DHT22;3967;48.702;9.326;2023-07-20T11:24:30;28.00;45.00
7844;DHT22;3967;48.702;9.326;2023-07-20T11:26:57;28.00;45.90
7844;DHT22;3967;48.702;9.326;2023-07-20T11:29:24;27.40;44.40
7844;DHT22;3967;48.702;9.326;2023-07-20T11:31:59;27.40;45.70
7844;DHT22;3967;48.702;9.326;2023-07-20T11:34:26;27.10;46.10
7844;DHT22;3967;48.702;9.326;2023-07-20T11:36:54;27.00;46.10
7844;DHT22;3967;48.702;9.326;2023-07-20T11:39:24;26.90;45.80
7844;DHT22;3967;48.702;9.326;2023-07-20T11:41:56;26.90;46.60
7844;DHT22;3967;48.702;9.326;2023-07-20T11:44:25;27.10;45.20
7844;DHT22;3967;48.702;9.326;2023-07-20T11:47:09;27.50;45.10
7844;DHT22;3967;48.702;9.326;2023-07-20T11:49:38;27.60;44.20
7844;DHT22;3967;48.702;9.326;2023-07-20T11:52:11;27.70;44.00
7844;DHT22;3967;48.702;9.326;2023-07-20T11:54:41;27.40;44.30
7844;DHT22;3967;48.702;9.326;2023-07-20T11:57:19;27.70;44.30
7844;DHT22;3967;48.702;9.326;2023-07-20T12:00:01;27.50;43.20
7844;DHT22;3967;48.702;9.326;2023-07-20T12:02:31;28.00;43.20
7844;DHT22;3967;48.702;9.326;2023-07-20T12:04:58;28.20;43.40
7844;DHT22;3967;48.702;9.326;2023-07-20T12:07:28;28.50;42.50
7844;DHT22;3967;48.702;9.326;2023-07-20T12:10:12;28.50;42.30
7844;DHT22;3967;48.702;9.326;2023-07-20T12:12:40;28.40;41.10
7844;DHT22;3967;48.702;9.326;2023-07-20T12:15:25;28.10;42.30
7844;DHT22;3967;48.702;9.326;2023-07-20T12:18:02;27.80;42.10
7844;DHT22;3967;48.702;9.326;2023-07-20T12:20:36;28.00;42.20
7844;DHT22;3967;48.702;9.326;2023-07-20T12:23:08;28.10;42.00
7844;DHT22;3967;48.702;9.326;2023-07-20T12:25:44;28.00;41.90
7844;DHT22;3967;48.702;9.326;2023-07-20T12:30:43;28.00;41.50
7844;DHT22;3967;48.702;9.326;2023-07-20T12:33:11;27.90;42.20
7844;DHT22;3967;48.702;9.326;2023-07-20T12:35:38;28.20;42.10
7844;DHT22;3967;48.702;9.326;2023-07-20T12:38:05;28.60;41.70
7844;DHT22;3967;48.702;9.326;2023-07-20T12:40:33;28.50;40.50
7844;DHT22;3967;48.702;9.326;2023-07-20T12:43:00;28.20;41.30
7844;DHT22;3967;48.702;9.326;2023-07-20T12:45:27;28.30;41.50
7844;DHT22;3967;48.702;9.326;2023-07-20T12:47:54;28.30;42.30
7844;DHT22;3967;48.702;9.326;2023-07-20T12:50:20;28.20;40.50
7844;DHT22;3967;48.702;9.326;2023-07-20T12:52:47;28.40;40.40
7844;DHT22;3967;48.702;9.326;2023-07-20T12:55:14;28.60;40.40
7844;DHT22;3967;48.702;9.326;2023-07-20T12:57:41;28.20;40.30
7844;DHT22;3967;48.702;9.326;2023-07-20T13:00:10;28.00;40.90
7844;DHT22;3967;48.702;9.326;2023-07-20T13:02:38;28.00;40.60
7844;DHT22;3967;48.702;9.326;2023-07-20T13:05:05;28.10;40.40
7844;DHT22;3967;48.702;9.326;2023-07-20T13:07:34;27.80;41.00
7844;DHT22;3967;48.702;9.326;2023-07-20T13:10:04;27.50;40.90
7844;DHT22;3967;48.702;9.326;2023-07-20T13:12:33;27.60;41.20
7844;DHT22;3967;48.702;9.326;2023-07-20T13:15:03;27.60;41.80
7844;DHT22;3967;48.702;9.326;2023-07-20T13:17:36;28.00;41.80
7844;DHT22;3967;48.702;9.326;2023-07-20T13:20:04;27.80;42.60
7844;DHT22;3967;48.702;9.326;2023-07-20T13:22:32;27.80;40.50
7844;DHT22;3967;48.702;9.326;2023-07-20T13:24:59;28.10;39.80
7844;DHT22;3967;48.702;9.326;2023-07-20T13:27:26;28.00;39.80
7844;DHT22;3967;48.702;9.326;2023-07-20T13:29:53;27.80;41.30
7844;DHT22;3967;48.702;9.326;2023-07-20T13:32:20;27.80;41.00
7844;DHT22;3967;48.702;9.326;2023-07-20T13:34:47;28.10;42.00
7844;DHT22;3967;48.702;9.326;2023-07-20T13:37:15;28.10;41.10
7844;DHT22;3967;48.702;9.326;2023-07-20T13:39:42;28.20;39.50
7844;DHT22;3967;48.702;9.326;2023-07-20T13:42:10;28.60;40.50
7844;DHT22;3967;48.702;9.326;2023-07-20T13:44:38;28.00;40.30
7844;DHT22;3967;48.702;9.326;2023-07-20T13:47:05;28.00;41.00
7844;DHT22;3967;48.702;9.326;2023-07-20T13:49:35;27.80;40.10
7844;DHT22;3967;48.702;9.326;2023-07-20T13:52:13;27.60;39.40
7844;DHT22;3967;48.702;9.326;2023-07-20T13:54:43;27.80;40.80
7844;DHT22;3967;48.702;9.326;2023-07-20T13:57:13;27.90;39.70
7844;DHT22;3967;48.702;9.326;2023-07-20T13:59:41;27.80;39.90
7844;DHT22;3967;48.702;9.326;2023-07-20T14:02:08;28.00;40.30
7844;DHT22;3967;48.702;9.326;2023-07-20T14:04:38;28.00;40.20
7844;DHT22;3967;48.702;9.326;2023-07-20T14:07:05;28.00;38.60
7844;DHT22;3967;48.702;9.326;2023-07-20T14:09:32;28.30;39.50
7844;DHT22;3967;48.702;9.326;2023-07-20T14:11:59;28.10;39.20
7844;DHT22;3967;48.702;9.326;2023-07-20T14:14:29;28.20;40.00
7844;DHT22;3967;48.702;9.326;2023-07-20T14:16:56;28.10;39.80
7844;DHT22;3967;48.702;9.326;2023-07-20T14:19:23;28.10;38.60
7844;DHT22;3967;48.702;9.326;2023-07-20T14:21:50;28.10;39.50
7844;DHT22;3967;48.702;9.326;2023-07-20T14:24:16;28.00;39.90
7844;DHT22;3967;48.702;9.326;2023-07-20T14:26:45;27.90;40.00
7844;DHT22;3967;48.702;9.326;2023-07-20T14:29:14;27.80;38.50
7844;DHT22;3967;48.702;9.326;2023-07-20T14:31:41;27.80;38.20
7844;DHT22;3967;48.702;9.326;2023-07-20T14:34:08;27.80;38.50
7844;DHT22;3967;48.702;9.326;2023-07-20T14:36:35;27.80;39.60
7844;DHT22;3967;48.702;9.326;2023-07-20T14:39:02;27.80;39.90
7844;DHT22;3967;48.702;9.326;2023-07-20T14:41:31;27.70;39.80
7844;DHT22;3967;48.702;9.326;2023-07-20T14:43:58;28.00;40.20
7844;DHT22;3967;48.702;9.326;2023-07-20T14:46:25;27.90;38.80
7844;DHT22;3967;48.702;9.326;2023-07-20T14:48:52;28.00;39.80
7844;DHT22;3967;48.702;9.326;2023-07-20T14:51:19;28.00;39.10
7844;DHT22;3967;48.702;9.326;2023-07-20T14:53:46;27.80;38.20
7844;DHT22;3967;48.702;9.326;2023-07-20T14:56:13;27.80;38.50
7844;DHT22;3967;48.702;9.326;2023-07-20T14:58:39;27.80;38.90
7844;DHT22;3967;48.702;9.326;2023-07-20T15:01:06;27.90;38.40
7844;DHT22;3967;48.702;9.326;2023-07-20T15:03:33;28.00;39.50
7844;DHT22;3967;48.702;9.326;2023-07-20T15:06:01;28.00;38.90
7844;DHT22;3967;48.702;9.326;2023-07-20T15:08:28;28.00;39.30
7844;DHT22;3967;48.702;9.326;2023-07-20T15:10:54;28.30;38.60
7844;DHT22;3967;48.702;9.326;2023-07-20T15:13:21;28.10;38.00
7844;DHT22;3967;48.702;9.326;2023-07-20T15:15:49;28.30;37.60
7844;DHT22;3967;48.702;9.326;2023-07-20T15:18:16;28.20;38.10
7844;DHT22;3967;48.702;9.326;2023-07-20T15:20:42;27.80;38.50
7844;DHT22;3967;48.702;9.326;2023-07-20T15:23:10;27.70;38.20
7844;DHT22;3967;48.702;9.326;2023-07-20T15:25:37;27.70;38.30
7844;DHT22;3967;48.702;9.326;2023-07-20T15:28:04;28.20;37.90
7844;DHT22;3967;48.702;9.326;2023-07-20T15:30:30;28.30;38.70
7844;DHT22;3967;48.702;9.326;2023-07-20T15:33:00;27.90;36.50
7844;DHT22;3967;48.702;9.326;2023-07-20T15:35:30;27.80;36.70
7844;DHT22;3967;48.702;9.326;2023-07-20T15:37:57;28.00;37.60
7844;DHT22;3967;48.702;9.326;2023-07-20T15:40:26;28.10;38.00
7844;DHT22;3967;48.702;9.326;2023-07-20T15:42:52;28.10;37.90
7844;DHT22;3967;48.702;9.326;2023-07-20T15:45:21;28.20;36.90
7844;DHT22;3967;48.702;9.326;2023-07-20T15:47:47;28.20;37.10
7844;DHT22;3967;48.702;9.326;2023-07-20T15:50:14;28.00;36.80
7844;DHT22;3967;48.702;9.326;2023-07-20T15:52:44;28.00;36.60
7844;DHT22;3967;48.702;9.326;2023-07-20T15:55:11;28.10;36.80
7844;DHT22;3967;48.702;9.326;2023-07-20T15:57:37;28.00;36.80
7844;DHT22;3967;48.702;9.326;2023-07-20T16:00:05;27.90;37.40
7844;DHT22;3967;48.702;9.326;2023-07-20T16:02:36;27.80;36.80
7844;DHT22;3967;48.702;9.326;2023-07-20T16:05:06;28.10;37.60
7844;DHT22;3967;48.702;9.326;2023-07-20T16:07:36;28.30;37.30
7844;DHT22;3967;48.702;9.326;2023-07-20T16:10:03;28.50;37.50
7844;DHT22;3967;48.702;9.326;2023-07-20T16:12:32;28.40;37.20
7844;DHT22;3967;48.702;9.326;2023-07-20T16:14:59;28.50;37.20
7844;DHT22;3967;48.702;9.326;2023-07-20T16:17:31;28.50;37.10
7844;DHT22;3967;48.702;9.326;2023-07-20T16:20:01;28.20;37.00
7844;DHT22;3967;48.702;9.326;2023-07-20T16:22:27;28.00;37.10